createdAt,value
2019-05-09T00:01:06.960Z,0
2019-05-09T00:04:15.156Z,0
2019-05-09T00:07:23.407Z,0
2019-05-09T00:10:47.074Z,0
2019-05-09T00:13:55.475Z,0
2019-05-09T00:17:04.223Z,0
2019-05-09T00:20:10.470Z,0
2019-05-09T00:23:16.654Z,0
2019-05-09T00:26:25.362Z,0
2019-05-09T00:29:34.101Z,0
2019-05-09T00:32:40.441Z,0
2019-05-09T00:38:56.012Z,0
2019-05-09T00:42:04.312Z,0
2019-05-09T00:45:10.629Z,0
2019-05-09T00:48:17.110Z,0
2019-05-09T00:51:25.685Z,0
2019-05-09T00:54:34.058Z,0
2019-05-09T01:00:47.092Z,0
2019-05-09T01:03:55.881Z,0
2019-05-09T01:07:04.557Z,0
2019-05-09T01:10:10.711Z,0
2019-05-09T01:13:17.281Z,0
2019-05-09T01:16:25.904Z,0
2019-05-09T01:22:40.682Z,0
2019-05-09T01:25:46.852Z,0
2019-05-09T01:28:55.561Z,0
2019-05-09T01:32:04.110Z,0
2019-05-09T01:35:10.364Z,0
2019-05-09T01:38:17.350Z,0
2019-05-09T01:41:36.488Z,0
2019-05-09T01:44:45.218Z,0
2019-05-09T01:47:53.227Z,0
2019-05-09T01:50:59.939Z,0
2019-05-09T01:54:06.886Z,0
2019-05-09T01:57:15.634Z,0
2019-05-09T02:00:23.684Z,0
2019-05-09T02:06:36.378Z,0
2019-05-09T02:09:45.975Z,0
2019-05-09T02:12:54.357Z,0
2019-05-09T02:19:07.792Z,0
2019-05-09T02:22:16.112Z,0
2019-05-09T02:28:31.112Z,0
2019-05-09T02:31:38.519Z,0
2019-05-09T02:34:47.335Z,0
2019-05-09T02:41:02.631Z,0
2019-05-09T02:44:12.165Z,0
2019-05-09T02:50:30.329Z,0
2019-05-09T02:53:42.436Z,0.1
2019-05-09T02:56:52.115Z,0.1
2019-05-09T03:03:11.565Z,0.4
2019-05-09T03:06:21.323Z,1.2
2019-05-09T03:09:30.435Z,181.4
2019-05-09T03:12:42.484Z,224.6
2019-05-09T03:15:51.882Z,230.4
2019-05-09T03:22:11.272Z,236.2
2019-05-09T03:25:20.937Z,237.6
2019-05-09T03:28:30.179Z,241.9
2019-05-09T03:34:48.935Z,256.3
2019-05-09T03:37:56.771Z,260.6
2019-05-09T03:44:10.325Z,237.6
2019-05-09T03:47:18.610Z,240.5
2019-05-09T03:50:24.745Z,241.9
2019-05-09T03:53:30.980Z,241.9
2019-05-09T03:56:39.385Z,241.9
2019-05-09T03:59:45.511Z,243.4
2019-05-09T04:02:51.808Z,249.1
2019-05-09T04:06:07.986Z,246.2
2019-05-09T04:09:14.481Z,246.2
2019-05-09T04:12:21.267Z,247.7
2019-05-09T04:15:29.448Z,244.8
2019-05-09T04:18:37.635Z,244.8
2019-05-09T04:21:48.165Z,246.2
2019-05-09T04:28:01.398Z,252
2019-05-09T04:31:09.768Z,249.1
2019-05-09T04:34:18.015Z,204.5
2019-05-09T04:37:24.327Z,313.9
2019-05-09T04:40:50.124Z,357.1
2019-05-09T04:43:58.623Z,352.8
2019-05-09T04:47:09.368Z,371.5
2019-05-09T04:50:29.073Z,371.5
2019-05-09T04:53:37.629Z,380.2
2019-05-09T04:56:48.089Z,380.2
2019-05-09T04:59:54.251Z,377.3
2019-05-09T05:03:00.930Z,364.3
2019-05-09T05:06:10.677Z,348.5
2019-05-09T05:09:21.684Z,341.3
2019-05-09T05:12:30.225Z,352.8
2019-05-09T05:15:38.392Z,354.2
2019-05-09T05:18:44.657Z,355.7
2019-05-09T05:21:51.025Z,348.5
2019-05-09T05:25:02.495Z,344.2
2019-05-09T05:28:10.982Z,344.2
2019-05-09T05:31:19.800Z,339.8
2019-05-09T05:34:28.149Z,347
2019-05-09T05:37:34.283Z,341.3
2019-05-09T05:40:51.894Z,351.4
2019-05-09T05:44:00.338Z,351.4
2019-05-09T05:47:08.877Z,351.4
2019-05-09T05:50:17.431Z,341.3
2019-05-09T05:53:23.840Z,342.7
2019-05-09T05:56:30.987Z,341.3
2019-05-09T05:59:43.500Z,322.6
2019-05-09T06:02:50.999Z,325.4
2019-05-09T06:05:59.592Z,318.2
2019-05-09T06:09:08.035Z,325.4
2019-05-09T06:12:14.415Z,322.6
2019-05-09T06:15:21.324Z,315.4
2019-05-09T06:18:29.954Z,301
2019-05-09T06:21:38.123Z,293.8
2019-05-09T06:24:47.803Z,290.9
2019-05-09T06:27:54.162Z,293.8
2019-05-09T06:31:01.528Z,290.9
2019-05-09T06:34:10.150Z,286.6
2019-05-09T06:37:18.874Z,296.6
2019-05-09T06:40:25.355Z,292.3
2019-05-09T06:43:32.126Z,288
2019-05-09T06:46:40.981Z,282.2
2019-05-09T06:52:59.652Z,286.6
2019-05-09T06:56:08.030Z,285.1
2019-05-09T06:59:14.162Z,277.9
2019-05-09T07:02:20.695Z,275
2019-05-09T07:05:29.022Z,276.5
2019-05-09T07:08:35.352Z,265
2019-05-09T07:11:41.576Z,275
2019-05-09T07:14:50.459Z,279.4
2019-05-09T07:17:59.295Z,275
2019-05-09T07:21:05.452Z,273.6
2019-05-09T07:24:14.361Z,269.3
2019-05-09T07:27:20.956Z,273.6
2019-05-09T07:30:30.171Z,280.8
2019-05-09T07:33:39.618Z,279.4
2019-05-09T07:36:48.253Z,276.5
2019-05-09T07:39:54.538Z,275
2019-05-09T07:43:01.566Z,273.6
2019-05-09T07:46:10.537Z,273.6
2019-05-09T07:49:18.731Z,269.3
2019-05-09T07:52:25.116Z,267.8
2019-05-09T07:55:31.271Z,269.3
2019-05-09T07:58:40.024Z,267.8
2019-05-09T08:01:51.276Z,267.8
2019-05-09T08:05:00.341Z,266.4
2019-05-09T08:08:09.131Z,266.4
2019-05-09T08:11:17.721Z,267.8
2019-05-09T08:14:24.261Z,267.8
2019-05-09T08:17:34.588Z,270.7
2019-05-09T08:20:43.557Z,272.2
2019-05-09T08:23:51.659Z,273.6
2019-05-09T08:27:00.322Z,275
2019-05-09T08:30:09.008Z,276.5
2019-05-09T08:33:15.152Z,275
2019-05-09T08:36:23.281Z,275
2019-05-09T08:39:30.778Z,276.5
2019-05-09T08:42:39.602Z,275
2019-05-09T08:45:48.243Z,276.5
2019-05-09T08:48:54.707Z,275
2019-05-09T08:52:21.838Z,272.2
2019-05-09T08:55:30.372Z,273.6
2019-05-09T08:58:39.348Z,273.6
2019-05-09T09:02:24.071Z,272.2
2019-05-09T09:05:31.973Z,272.2
2019-05-09T09:08:40.901Z,272.2
2019-05-09T09:11:50.238Z,270.7
2019-05-09T09:14:58.543Z,270.7
2019-05-09T09:18:05.118Z,270.7
2019-05-09T09:21:11.512Z,270.7
2019-05-09T09:24:20.011Z,266.4
2019-05-09T09:27:28.615Z,257.8
2019-05-09T09:30:34.911Z,260.6
2019-05-09T09:33:41.182Z,259.2
2019-05-09T09:36:52.637Z,262.1
2019-05-09T09:40:01.185Z,265
2019-05-09T09:43:10.931Z,256.3
2019-05-09T09:46:20.537Z,259.2
2019-05-09T09:49:29.820Z,260.6
2019-05-09T09:52:43.012Z,262.1
2019-05-09T09:55:50.756Z,262.1
2019-05-09T09:58:58.957Z,256.3
2019-05-09T10:02:09.837Z,250.6
2019-05-09T10:08:25.169Z,203
2019-05-09T10:11:31.631Z,198.7
2019-05-09T10:14:37.930Z,200.2
2019-05-09T10:17:44.242Z,201.6
2019-05-09T10:20:51.613Z,201.6
2019-05-09T10:24:00.016Z,194.4
2019-05-09T10:27:09.322Z,249.1
2019-05-09T10:30:17.805Z,252
2019-05-09T10:33:24.362Z,247.7
2019-05-09T10:36:31.060Z,246.2
2019-05-09T10:42:48.827Z,249.1
2019-05-09T10:45:54.989Z,249.1
2019-05-09T10:49:01.939Z,230.4
2019-05-09T10:52:15.107Z,254.9
2019-05-09T10:55:23.924Z,256.3
2019-05-09T10:58:30.970Z,257.8
2019-05-09T11:04:51.534Z,257.8
2019-05-09T11:08:00.142Z,253.4
2019-05-09T11:11:11.893Z,254.9
2019-05-09T11:14:39.912Z,253.4
2019-05-09T11:17:48.139Z,257.8
2019-05-09T11:20:54.271Z,252
2019-05-09T11:24:01.492Z,253.4
2019-05-09T11:27:10.315Z,253.4
2019-05-09T11:30:18.778Z,252
2019-05-09T11:36:31.270Z,227.5
2019-05-09T11:41:04.530Z,252
2019-05-09T11:44:11.626Z,249.1
2019-05-09T11:47:48.449Z,249.1
2019-05-09T11:50:54.516Z,249.1
2019-05-09T11:54:01.190Z,250.6
2019-05-09T11:57:09.493Z,249.1
2019-05-09T12:03:21.921Z,244.8
2019-05-09T12:06:31.266Z,247.7
2019-05-09T12:09:43.000Z,246.2
2019-05-09T12:12:50.921Z,246.2
2019-05-09T12:16:00.306Z,249.1
2019-05-09T12:19:06.441Z,249.1
2019-05-09T12:25:21.264Z,244.8
2019-05-09T12:28:27.431Z,244.8
2019-05-09T12:31:39.207Z,243.4
2019-05-09T12:34:47.828Z,243.4
2019-05-09T12:37:54.138Z,246.2
2019-05-09T12:41:03.580Z,244.8
2019-05-09T12:47:20.895Z,246.2
2019-05-09T12:50:29.951Z,233.3
2019-05-09T12:53:36.114Z,246.2
2019-05-09T12:56:42.246Z,243.4
2019-05-09T12:59:55.555Z,244.8
2019-05-09T13:03:04.278Z,246.2
2019-05-09T13:06:11.367Z,246.2
2019-05-09T13:09:20.207Z,247.7
2019-05-09T13:12:29.661Z,239
2019-05-09T13:15:38.231Z,243.4
2019-05-09T13:18:44.656Z,158.4
2019-05-09T13:21:50.761Z,247.7
2019-05-09T13:25:02.654Z,249.1
2019-05-09T13:28:11.373Z,250.6
2019-05-09T13:31:20.567Z,250.6
2019-05-09T13:34:29.478Z,250.6
2019-05-09T13:37:38.746Z,253.4
2019-05-09T13:40:52.854Z,253.4
2019-05-09T13:44:17.810Z,257.8
2019-05-09T13:47:24.168Z,260.6
2019-05-09T13:50:31.285Z,260.6
2019-05-09T13:53:39.902Z,257.8
2019-05-09T13:56:56.970Z,256.3
2019-05-09T14:00:09.935Z,254.9
2019-05-09T14:03:18.680Z,256.3
2019-05-09T14:06:24.963Z,253.4
2019-05-09T14:09:32.557Z,250.6
2019-05-09T14:12:41.386Z,250.6
2019-05-09T14:15:50.073Z,250.6
2019-05-09T14:19:50.798Z,249.1
2019-05-09T14:22:59.949Z,249.1
2019-05-09T14:26:09.936Z,246.2
2019-05-09T14:32:40.695Z,243.4
2019-05-09T14:35:49.084Z,243.4
2019-05-09T14:38:57.718Z,244.8
2019-05-09T14:42:04.254Z,243.4
2019-05-09T14:45:11.610Z,241.9
2019-05-09T14:48:20.299Z,241.9
2019-05-09T14:51:29.046Z,243.4
2019-05-09T14:54:40.407Z,243.4
2019-05-09T14:57:49.132Z,243.4
2019-05-09T15:00:55.332Z,241.9
2019-05-09T15:04:01.903Z,243.4
2019-05-09T15:07:10.515Z,241.9
2019-05-09T15:10:19.344Z,241.9
2019-05-09T15:16:31.768Z,241.9
2019-05-09T15:20:00.391Z,241.9
2019-05-09T15:26:17.632Z,241.9
2019-05-09T15:29:25.100Z,240.5
2019-05-09T15:32:31.366Z,240.5
2019-05-09T15:35:41.913Z,241.9
2019-05-09T15:42:41.780Z,241.9
2019-05-09T15:45:47.914Z,241.9
2019-05-09T15:48:54.127Z,241.9
2019-05-09T15:52:01.502Z,243.4
2019-05-09T15:55:10.723Z,241.9
2019-05-09T15:58:19.878Z,241.9
2019-05-09T16:01:29.004Z,241.9
2019-05-09T16:04:35.173Z,240.5
2019-05-09T16:10:47.598Z,240.5
2019-05-09T16:13:53.875Z,240.5
2019-05-09T16:17:00.140Z,240.5
2019-05-09T16:20:08.965Z,241.9
2019-05-09T16:23:15.125Z,243.4
2019-05-09T16:26:21.394Z,243.4
2019-05-09T16:29:33.484Z,241.9
2019-05-09T16:32:40.686Z,241.9
2019-05-09T16:35:53.510Z,240.5
2019-05-09T16:39:04.489Z,241.9
2019-05-09T16:42:11.164Z,240.5
2019-05-09T16:45:20.087Z,241.9
2019-05-09T16:48:28.893Z,241.9
2019-05-09T16:54:41.967Z,241.9
2019-05-09T16:57:48.128Z,241.9
2019-05-09T17:00:54.394Z,241.9
2019-05-09T17:04:00.700Z,241.9
2019-05-09T17:07:09.084Z,241.9
2019-05-09T17:10:17.584Z,241.9
2019-05-09T17:13:23.970Z,241.9
2019-05-09T17:16:31.568Z,241.9
2019-05-09T17:19:40.242Z,241.9
2019-05-09T17:22:48.691Z,241.9
2019-05-09T17:29:01.145Z,241.9
2019-05-09T17:32:10.124Z,240.5
2019-05-09T17:35:17.960Z,241.9
2019-05-09T17:38:24.757Z,241.9
2019-05-09T17:41:31.442Z,241.9
2019-05-09T17:44:37.954Z,241.9
2019-05-09T17:47:44.430Z,241.9
2019-05-09T17:50:50.906Z,240.5
2019-05-09T17:53:59.841Z,240.5
2019-05-09T17:57:09.833Z,241.9
2019-05-09T18:00:22.866Z,240.5
2019-05-09T18:03:31.954Z,241.9
2019-05-09T18:06:40.828Z,241.9
2019-05-09T18:12:55.815Z,241.9
2019-05-09T18:16:02.087Z,241.9
2019-05-09T18:19:11.114Z,240.5
2019-05-09T18:22:19.720Z,241.9
2019-05-09T18:25:25.847Z,243.4
2019-05-09T18:28:32.482Z,241.9
2019-05-09T18:31:40.381Z,241.9
2019-05-09T18:34:48.711Z,241.9
2019-05-09T18:37:54.884Z,243.4
2019-05-09T18:41:01.250Z,243.4
2019-05-09T18:47:18.290Z,243.4
2019-05-09T18:50:24.763Z,241.9
2019-05-09T18:53:31.135Z,243.4
2019-05-09T18:56:37.396Z,243.4
2019-05-09T18:59:43.513Z,241.9
2019-05-09T19:02:49.828Z,243.4
2019-05-09T19:05:55.992Z,243.4
2019-05-09T19:09:02.259Z,241.9
2019-05-09T19:12:08.378Z,243.4
2019-05-09T19:15:14.696Z,243.4
2019-05-09T19:21:27.222Z,243.4
2019-05-09T19:24:33.456Z,241.9
2019-05-09T19:27:39.669Z,243.4
2019-05-09T19:30:45.932Z,243.4
2019-05-09T19:33:52.044Z,241.9
2019-05-09T19:36:58.368Z,243.4
2019-05-09T19:40:04.627Z,243.4
2019-05-09T19:43:10.741Z,243.4
2019-05-09T19:46:16.955Z,243.4
2019-05-09T19:49:23.074Z,243.4
2019-05-09T19:52:44.205Z,241.9
2019-05-09T19:55:50.336Z,244.8
2019-05-09T19:58:56.660Z,240.5
2019-05-09T20:02:02.943Z,239
2019-05-09T20:05:09.192Z,239
2019-05-09T20:08:15.315Z,239
2019-05-09T20:11:21.675Z,239
2019-05-09T20:14:27.994Z,240.5
2019-05-09T20:17:34.285Z,239
2019-05-09T20:20:40.551Z,239
2019-05-09T20:23:47.106Z,240.5
2019-05-09T20:29:59.634Z,240.5
2019-05-09T20:33:05.900Z,239
2019-05-09T20:36:12.249Z,240.5
2019-05-09T20:39:18.380Z,239
2019-05-09T20:42:24.609Z,240.5
2019-05-09T20:45:30.761Z,0
2019-05-09T20:48:36.928Z,0
2019-05-09T20:51:43.196Z,0
2019-05-09T20:54:49.518Z,0
2019-05-09T20:57:55.728Z,0
2019-05-09T21:04:08.207Z,0
2019-05-09T21:07:14.343Z,0
2019-05-09T21:10:20.586Z,0
2019-05-09T21:13:26.873Z,0
2019-05-09T21:16:33.020Z,0
2019-05-09T21:19:39.291Z,0
2019-05-09T21:22:45.637Z,0
2019-05-09T21:25:51.771Z,0
2019-05-09T21:28:57.906Z,0
2019-05-09T21:32:04.042Z,167.8
2019-05-09T21:35:10.223Z,0
2019-05-09T21:38:16.385Z,0
2019-05-09T21:41:22.648Z,0
2019-05-09T21:44:28.780Z,0
2019-05-09T21:47:35.210Z,0
2019-05-09T21:50:41.454Z,0
2019-05-09T21:53:47.614Z,0
2019-05-09T21:56:53.891Z,0
2019-05-09T22:00:00.017Z,0
2019-05-09T22:03:06.308Z,0
2019-05-09T22:06:12.898Z,0
2019-05-09T22:09:20.384Z,0
2019-05-09T22:12:30.298Z,0
2019-05-09T22:15:37.034Z,0
2019-05-09T22:18:43.233Z,0
2019-05-09T22:21:49.527Z,0
2019-05-09T22:24:55.730Z,0
2019-05-09T22:28:01.982Z,0
2019-05-09T22:31:08.110Z,0
2019-05-09T22:34:14.417Z,0
2019-05-09T22:37:20.542Z,0
2019-05-09T22:40:26.744Z,0
2019-05-09T22:43:33.009Z,0
2019-05-09T22:46:39.181Z,0
2019-05-09T22:49:45.368Z,0
2019-05-09T22:52:51.634Z,0
2019-05-09T22:59:04.040Z,0
2019-05-09T23:02:10.358Z,0
2019-05-09T23:05:16.624Z,0
2019-05-09T23:08:22.842Z,0
2019-05-09T23:11:29.170Z,0
2019-05-09T23:14:35.368Z,0
2019-05-09T23:17:41.695Z,0
2019-05-09T23:20:47.963Z,0
2019-05-09T23:23:54.362Z,0
2019-05-09T23:27:00.550Z,0
2019-05-09T23:30:06.760Z,0
2019-05-09T23:33:12.985Z,0
2019-05-09T23:36:19.110Z,0
2019-05-09T23:39:25.311Z,0
2019-05-09T23:42:31.525Z,0
2019-05-09T23:45:37.690Z,0
2019-05-09T23:48:44.012Z,0
2019-05-09T23:51:50.278Z,0
2019-05-09T23:54:56.545Z,0
2019-05-09T23:58:02.710Z,0
